Time;durP1;ratioP1;P1;durP2;ratioP2;P2;SDS_P1;SDS_P2;PMS_P1;PMS_P2;Temp;Humidity;BMP_temperature;BMP_pressure;BME280_temperature;BME280_humidity;BME280_pressure;Samples;Min_cycle;Max_cycle;Signal;HPM_P1;HPM_P2
2022/12/30 00:00:59;;;;;;;58.70;2.60;;;;;;;;;;5034502;28;20476;-69
2022/12/30 00:03:26;;;;;;;58.10;2.97;;;;;;;;;;5034232;28;20481;-68
2022/12/30 00:05:53;;;;;;;57.50;2.77;;;;;;;;;;5034345;28;20449;-69
2022/12/30 00:11:05;;;;;;;57.70;2.43;;;;;;;;;;5034131;28;20825;-68
2022/12/30 00:33:09;;;;;;;58.70;3.10;;;;;;;;;;5033889;28;20798;-68
2022/12/30 00:35:36;;;;;;;59.60;2.83;;;;;;;;;;5033808;28;20457;-68
2022/12/30 00:38:03;;;;;;;57.60;2.63;;;;;;;;;;5033774;28;20543;-68
2022/12/30 00:40:30;;;;;;;57.90;2.90;;;;;;;;;;5032879;28;20455;-68
2022/12/30 00:43:08;;;;;;;57.73;2.60;;;;;;;;;;5033761;28;20858;-68
2022/12/30 00:45:37;;;;;;;57.90;2.60;;;;;;;;;;5033273;28;20472;-67
2022/12/30 00:56:19;;;;;;;58.70;3.00;;;;;;;;;;5033544;28;20406;-68
2022/12/30 00:58:46;;;;;;;57.63;2.80;;;;;;;;;;5032761;28;20460;-68
2022/12/30 01:01:14;;;;;;;58.20;3.10;;;;;;;;;;5033226;28;20583;-68
2022/12/30 01:03:41;;;;;;;58.30;2.83;;;;;;;;;;5033226;28;20485;-68
2022/12/30 01:06:09;;;;;;;58.90;2.97;;;;;;;;;;5033196;28;20456;-68
2022/12/30 01:08:36;;;;;;;62.90;3.00;;;;;;;;;;5032215;28;20968;-68
2022/12/30 01:11:06;;;;;;;58.10;2.90;;;;;;;;;;5032790;28;20489;-68
2022/12/30 01:13:33;;;;;;;58.53;2.87;;;;;;;;;;5033241;28;20445;-68
2022/12/30 01:16:06;;;;;;;60.47;2.70;;;;;;;;;;5032976;28;20468;-68
2022/12/30 01:18:35;;;;;;;58.37;2.77;;;;;;;;;;5032132;28;20445;-66
2022/12/30 01:21:02;;;;;;;61.57;2.90;;;;;;;;;;5032666;28;20471;-68
2022/12/30 01:23:29;;;;;;;58.50;3.20;;;;;;;;;;5032679;28;20488;-69
2022/12/30 01:25:56;;;;;;;58.33;3.30;;;;;;;;;;5032881;28;20449;-67
2022/12/30 01:28:23;;;;;;;58.53;3.30;;;;;;;;;;5032599;28;20445;-68
2022/12/30 01:30:50;;;;;;;58.07;2.97;;;;;;;;;;5031482;28;20837;-68
2022/12/30 01:33:17;;;;;;;58.70;2.93;;;;;;;;;;5032376;28;20445;-68
2022/12/30 01:35:46;;;;;;;58.27;3.20;;;;;;;;;;5032513;28;20460;-68
2022/12/30 01:38:13;;;;;;;57.70;2.50;;;;;;;;;;5032820;28;20445;-67
2022/12/30 01:40:40;;;;;;;57.47;2.77;;;;;;;;;;5031661;28;20473;-68
2022/12/30 01:43:11;;;;;;;58.23;3.20;;;;;;;;;;5032483;28;20481;-68
2022/12/30 01:45:39;;;;;;;59.60;2.87;;;;;;;;;;5032396;28;20459;-68
2022/12/30 01:48:08;;;;;;;57.70;2.70;;;;;;;;;;5032317;28;20980;-68
2022/12/30 01:50:39;;;;;;;58.50;2.90;;;;;;;;;;5031702;28;20444;-69
2022/12/30 01:53:10;;;;;;;57.57;2.90;;;;;;;;;;5032480;28;20446;-69
2022/12/30 01:55:39;;;;;;;57.37;2.70;;;;;;;;;;5032365;28;20449;-69
2022/12/30 01:58:09;;;;;;;58.03;2.87;;;;;;;;;;5032270;28;20459;-68
2022/12/30 02:00:36;;;;;;;58.07;2.83;;;;;;;;;;5031274;28;20453;-68
2022/12/30 02:03:03;;;;;;;56.97;2.60;;;;;;;;;;5031990;28;20491;-67
2022/12/30 02:05:31;;;;;;;58.20;2.77;;;;;;;;;;5032059;28;20449;-68
2022/12/30 02:08:02;;;;;;;57.30;2.50;;;;;;;;;;5032106;28;20816;-69
2022/12/30 02:10:30;;;;;;;57.37;2.70;;;;;;;;;;5031428;28;20508;-68
2022/12/30 02:12:58;;;;;;;59.07;3.07;;;;;;;;;;5031851;28;20982;-68
2022/12/30 02:15:27;;;;;;;57.73;3.00;;;;;;;;;;5031886;28;20449;-68
2022/12/30 02:18:00;;;;;;;58.20;2.93;;;;;;;;;;5032007;28;20556;-68
2022/12/30 02:20:41;;;;;;;58.20;3.50;;;;;;;;;;5027441;28;20449;-68
2022/12/30 02:23:19;;;;;;;58.30;3.20;;;;;;;;;;5031709;28;20847;-68
2022/12/30 02:25:58;;;;;;;59.90;2.80;;;;;;;;;;5032028;28;20819;-68
2022/12/30 02:28:37;;;;;;;57.70;2.70;;;;;;;;;;5031695;28;20479;-69
2022/12/30 02:31:16;;;;;;;58.67;3.13;;;;;;;;;;5031855;28;20844;-68
2022/12/30 02:33:46;;;;;;;58.13;2.53;;;;;;;;;;5031692;28;20955;-68
2022/12/30 02:36:17;;;;;;;57.37;2.77;;;;;;;;;;5032030;28;20456;-69
2022/12/30 02:38:46;;;;;;;57.90;2.60;;;;;;;;;;5031265;28;20449;-69
2022/12/30 02:46:55;;;;;;;57.80;3.00;;;;;;;;;;5035767;28;20455;-69
2022/12/30 02:49:23;;;;;;;58.47;3.00;;;;;;;;;;5035071;28;20449;-67
2022/12/30 02:54:36;;;;;;;57.90;2.70;;;;;;;;;;5035722;28;20201;-69
2022/12/30 02:57:04;;;;;;;61.20;3.00;;;;;;;;;;5035538;28;20453;-68
2022/12/30 03:05:20;;;;;;;57.47;2.60;;;;;;;;;;5035563;28;20428;-69
2022/12/30 03:07:51;;;;;;;58.20;2.70;;;;;;;;;;5035595;28;20460;-68
2022/12/30 03:13:09;;;;;;;58.37;2.60;;;;;;;;;;5034980;28;20427;-68
2022/12/30 03:15:43;;;;;;;58.07;2.80;;;;;;;;;;5035237;28;20942;-68
2022/12/30 03:18:12;;;;;;;57.37;2.60;;;;;;;;;;5035365;28;20452;-69
2022/12/30 03:20:40;;;;;;;58.20;2.70;;;;;;;;;;5034541;28;20451;-68
2022/12/30 03:28:37;;;;;;;58.58;3.20;;;;;;;;;;5034267;28;20905;-68
2022/12/30 03:31:06;;;;;;;59.03;3.50;;;;;;;;;;5035033;28;20223;-69
2022/12/30 03:33:35;;;;;;;57.78;3.05;;;;;;;;;;5034864;28;20683;-68
2022/12/30 03:36:06;;;;;;;58.20;3.20;;;;;;;;;;5034783;28;20216;-68
2022/12/30 03:38:35;;;;;;;58.40;3.30;;;;;;;;;;5034479;28;20221;-69
2022/12/30 03:41:03;;;;;;;58.53;3.47;;;;;;;;;;5034858;28;20469;-68
2022/12/30 03:43:30;;;;;;;57.90;2.90;;;;;;;;;;5034733;28;20234;-68
2022/12/30 03:45:57;;;;;;;60.00;3.72;;;;;;;;;;5034729;28;20206;-69
2022/12/30 03:48:24;;;;;;;58.05;3.15;;;;;;;;;;5034485;28;20209;-69
2022/12/30 03:50:53;;;;;;;58.67;3.28;;;;;;;;;;5033880;28;20711;-69
2022/12/30 03:53:20;;;;;;;58.95;3.33;;;;;;;;;;5034732;28;20210;-68
2022/12/30 03:55:47;;;;;;;58.17;3.40;;;;;;;;;;5033533;28;20254;-69
2022/12/30 03:58:14;;;;;;;60.03;3.83;;;;;;;;;;5034285;28;20213;-69
2022/12/30 04:00:41;;;;;;;58.38;3.53;;;;;;;;;;5033710;28;20229;-69
2022/12/30 04:03:08;;;;;;;59.08;3.65;;;;;;;;;;5034125;28;20225;-69
2022/12/30 04:05:36;;;;;;;59.63;3.70;;;;;;;;;;5034540;28;20588;-69
2022/12/30 04:08:05;;;;;;;58.78;3.67;;;;;;;;;;5034375;28;20881;-69
2022/12/30 04:10:32;;;;;;;60.15;3.47;;;;;;;;;;5033661;28;20215;-68
2022/12/30 04:12:59;;;;;;;58.60;3.47;;;;;;;;;;5033889;28;20605;-68
2022/12/30 04:15:26;;;;;;;59.45;3.70;;;;;;;;;;5034142;28;20206;-69
2022/12/30 04:17:53;;;;;;;61.65;3.53;;;;;;;;;;5034060;28;20210;-68
2022/12/30 04:20:20;;;;;;;58.85;3.70;;;;;;;;;;5033104;28;20233;-68
2022/12/30 04:22:47;;;;;;;57.72;3.30;;;;;;;;;;5034178;28;20209;-68
2022/12/30 04:25:16;;;;;;;58.85;3.45;;;;;;;;;;5034067;28;20572;-69
2022/12/30 04:27:43;;;;;;;58.40;3.40;;;;;;;;;;5034044;28;20213;-68
2022/12/30 04:30:10;;;;;;;59.47;3.47;;;;;;;;;;5032960;28;20207;-69
2022/12/30 04:32:37;;;;;;;58.55;3.47;;;;;;;;;;5033948;28;20232;-68
2022/12/30 04:35:05;;;;;;;59.60;3.58;;;;;;;;;;5033752;28;20699;-68
2022/12/30 04:37:32;;;;;;;58.72;3.25;;;;;;;;;;5033673;28;20206;-68
2022/12/30 04:39:59;;;;;;;59.60;3.60;;;;;;;;;;5033017;28;20210;-68
2022/12/30 04:42:27;;;;;;;59.08;3.40;;;;;;;;;;5033631;28;20232;-69
2022/12/30 04:44:54;;;;;;;57.97;3.28;;;;;;;;;;5033483;28;20604;-69
2022/12/30 04:47:22;;;;;;;58.58;3.50;;;;;;;;;;5033728;28;20210;-69
2022/12/30 04:49:49;;;;;;;58.35;3.40;;;;;;;;;;5032905;28;20210;-69
2022/12/30 04:52:16;;;;;;;58.70;3.70;;;;;;;;;;5033382;28;20236;-69
2022/12/30 04:54:43;;;;;;;58.42;3.42;;;;;;;;;;5033549;28;20578;-69
2022/12/30 04:57:10;;;;;;;59.38;3.50;;;;;;;;;;5033268;28;20216;-68
2022/12/30 04:59:38;;;;;;;58.10;3.10;;;;;;;;;;5032838;28;20227;-69
2022/12/30 05:02:06;;;;;;;58.25;3.28;;;;;;;;;;5033404;28;20229;-69
2022/12/30 05:04:33;;;;;;;58.80;3.30;;;;;;;;;;5033324;28;20654;-69
2022/12/30 05:07:00;;;;;;;58.60;3.55;;;;;;;;;;5032866;28;20678;-68
2022/12/30 05:09:27;;;;;;;60.33;3.78;;;;;;;;;;5032403;28;20210;-68
2022/12/30 05:11:54;;;;;;;60.60;3.55;;;;;;;;;;5032800;28;20248;-69
2022/12/30 05:14:21;;;;;;;59.17;3.65;;;;;;;;;;5033239;28;20553;-68
2022/12/30 05:16:50;;;;;;;59.95;4.05;;;;;;;;;;5033171;28;20209;-69
2022/12/30 05:19:17;;;;;;;58.75;3.80;;;;;;;;;;5032055;28;20682;-68
2022/12/30 05:21:44;;;;;;;58.50;3.90;;;;;;;;;;5032660;28;20233;-68
2022/12/30 05:26:56;;;;;;;58.40;3.92;;;;;;;;;;5032931;28;20205;-69
2022/12/30 05:29:23;;;;;;;58.75;3.50;;;;;;;;;;5032362;28;20588;-69
2022/12/30 05:31:51;;;;;;;60.95;4.25;;;;;;;;;;5032714;28;20238;-69
2022/12/30 05:34:19;;;;;;;59.30;4.45;;;;;;;;;;5032614;28;20697;-68
2022/12/30 05:36:46;;;;;;;59.50;4.40;;;;;;;;;;5032569;28;20206;-68
2022/12/30 05:39:13;;;;;;;59.40;4.07;;;;;;;;;;5032017;28;20213;-69
2022/12/30 05:41:40;;;;;;;62.10;4.50;;;;;;;;;;5032574;28;20229;-68
2022/12/30 05:44:07;;;;;;;61.15;4.30;;;;;;;;;;5032358;28;20732;-69
2022/12/30 05:46:34;;;;;;;59.17;4.00;;;;;;;;;;5032578;28;20216;-68
2022/12/30 05:49:03;;;;;;;58.53;3.30;;;;;;;;;;5031707;28;20216;-68
2022/12/30 05:51:30;;;;;;;59.35;4.00;;;;;;;;;;5031746;28;20232;-68
2022/12/30 05:53:58;;;;;;;58.85;4.20;;;;;;;;;;5032247;28;20205;-68
2022/12/30 05:56:25;;;;;;;60.92;3.70;;;;;;;;;;5032320;28;20681;-69
2022/12/30 05:58:52;;;;;;;58.35;3.58;;;;;;;;;;5031677;28;20209;-68
2022/12/30 06:01:19;;;;;;;59.38;3.90;;;;;;;;;;5032108;28;20595;-69
2022/12/30 06:03:46;;;;;;;58.65;3.55;;;;;;;;;;5032080;28;20229;-68
2022/12/30 06:06:14;;;;;;;58.80;3.95;;;;;;;;;;5032097;28;20216;-69
2022/12/30 06:08:41;;;;;;;58.55;3.63;;;;;;;;;;5031545;28;20221;-67
2022/12/30 06:11:09;;;;;;;59.47;4.20;;;;;;;;;;5032034;28;20244;-68
2022/12/30 06:13:36;;;;;;;59.60;3.97;;;;;;;;;;5032195;28;20213;-68
2022/12/30 06:16:03;;;;;;;58.75;3.80;;;;;;;;;;5032107;28;20213;-69
2022/12/30 06:18:30;;;;;;;61.67;3.92;;;;;;;;;;5030923;28;20212;-69
2022/12/30 06:20:57;;;;;;;59.53;3.90;;;;;;;;;;5031665;28;20717;-69
2022/12/30 06:23:26;;;;;;;59.15;4.13;;;;;;;;;;5032076;28;20244;-68
2022/12/30 06:25:53;;;;;;;59.13;4.28;;;;;;;;;;5032062;28;20209;-68
2022/12/30 06:28:20;;;;;;;62.08;4.18;;;;;;;;;;5031759;28;20219;-68
2022/12/30 06:30:48;;;;;;;58.90;3.90;;;;;;;;;;5031146;28;20237;-69
2022/12/30 06:33:15;;;;;;;59.72;4.57;;;;;;;;;;5031726;28;20223;-69
2022/12/30 06:35:42;;;;;;;59.95;3.90;;;;;;;;;;5031683;28;20702;-68
2022/12/30 06:38:09;;;;;;;59.25;4.30;;;;;;;;;;5031666;28;20219;-68
2022/12/30 06:40:38;;;;;;;59.13;4.07;;;;;;;;;;5031084;28;20673;-68
2022/12/30 06:43:05;;;;;;;59.80;4.57;;;;;;;;;;5031773;28;20217;-68
2022/12/30 06:45:32;;;;;;;59.38;4.60;;;;;;;;;;5031464;28;20228;-69
2022/12/30 06:47:59;;;;;;;59.55;4.75;;;;;;;;;;5031524;28;20672;-69
2022/12/30 06:50:26;;;;;;;59.92;3.90;;;;;;;;;;5031041;28;20395;-68
2022/12/30 06:52:53;;;;;;;59.55;4.75;;;;;;;;;;5031656;28;20220;-68
2022/12/30 06:55:21;;;;;;;60.17;4.35;;;;;;;;;;5031696;28;20200;-68
2022/12/30 06:57:50;;;;;;;59.47;3.97;;;;;;;;;;5031549;28;20211;-69
2022/12/30 07:00:17;;;;;;;63.53;5.82;;;;;;;;;;5030739;28;20210;-68
2022/12/30 07:02:44;;;;;;;61.42;4.65;;;;;;;;;;5031408;28;20743;-68
2022/12/30 07:05:11;;;;;;;62.90;4.93;;;;;;;;;;5031509;28;20569;-68
2022/12/30 07:07:38;;;;;;;59.50;4.47;;;;;;;;;;5031612;28;20281;-68
2022/12/30 07:10:06;;;;;;;60.08;4.95;;;;;;;;;;5030589;28;20221;-68
2022/12/30 07:12:33;;;;;;;60.15;4.97;;;;;;;;;;5031318;28;20237;-68
2022/12/30 07:15:01;;;;;;;60.05;5.25;;;;;;;;;;5031594;28;20244;-68
2022/12/30 07:17:28;;;;;;;59.83;4.18;;;;;;;;;;5031595;28;20298;-68
2022/12/30 07:19:56;;;;;;;59.75;5.15;;;;;;;;;;5030802;28;20210;-68
2022/12/30 07:22:23;;;;;;;60.83;5.20;;;;;;;;;;5031455;28;20234;-67
2022/12/30 07:24:50;;;;;;;59.63;4.90;;;;;;;;;;5031249;28;20227;-68
2022/12/30 07:27:17;;;;;;;60.30;5.03;;;;;;;;;;5031173;28;20213;-68
2022/12/30 07:29:44;;;;;;;60.90;5.88;;;;;;;;;;5033239;28;20586;-68
2022/12/30 07:32:12;;;;;;;60.78;5.85;;;;;;;;;;5035091;28;20226;-68
2022/12/30 07:34:39;;;;;;;60.55;5.80;;;;;;;;;;5034945;28;20214;-68
2022/12/30 07:37:06;;;;;;;63.80;6.10;;;;;;;;;;5034964;28;20230;-68
2022/12/30 07:39:34;;;;;;;64.63;6.55;;;;;;;;;;5034092;28;20606;-68
2022/12/30 07:42:01;;;;;;;63.00;6.97;;;;;;;;;;5034627;28;20238;-68
2022/12/30 07:44:28;;;;;;;64.82;6.75;;;;;;;;;;5034668;28;20741;-68
2022/12/30 07:46:55;;;;;;;62.42;6.32;;;;;;;;;;5034963;28;20213;-68
2022/12/30 07:49:24;;;;;;;63.35;6.90;;;;;;;;;;5033996;28;20220;-68
2022/12/30 07:51:51;;;;;;;65.43;7.53;;;;;;;;;;5034637;28;20227;-69
2022/12/30 07:54:18;;;;;;;62.35;7.38;;;;;;;;;;5034456;28;20205;-68
2022/12/30 07:56:45;;;;;;;61.40;6.30;;;;;;;;;;5034542;28;20220;-67
2022/12/30 07:59:12;;;;;;;61.80;6.60;;;;;;;;;;5033936;28;20212;-68
2022/12/30 08:01:39;;;;;;;62.92;6.97;;;;;;;;;;5034446;28;20291;-68
2022/12/30 08:04:07;;;;;;;62.80;7.75;;;;;;;;;;5034341;28;20206;-68
2022/12/30 08:06:36;;;;;;;62.65;6.22;;;;;;;;;;5034408;28;20209;-68
2022/12/30 08:09:04;;;;;;;61.70;6.20;;;;;;;;;;5033469;28;20249;-68
2022/12/30 08:11:31;;;;;;;63.33;7.40;;;;;;;;;;5034233;28;20241;-69
2022/12/30 08:13:58;;;;;;;63.75;8.07;;;;;;;;;;5034281;28;20673;-68
2022/12/30 08:16:25;;;;;;;61.65;6.97;;;;;;;;;;5034204;28;20217;-68
2022/12/30 08:18:53;;;;;;;65.00;7.50;;;;;;;;;;5033428;28;20209;-68
2022/12/30 08:21:20;;;;;;;62.55;7.25;;;;;;;;;;5033878;28;20262;-68
2022/12/30 08:23:48;;;;;;;67.03;8.55;;;;;;;;;;5034274;28;20227;-69
2022/12/30 08:26:17;;;;;;;64.95;9.98;;;;;;;;;;5034003;28;20237;-68
2022/12/30 08:28:44;;;;;;;64.18;8.68;;;;;;;;;;5033452;28;20209;-68
2022/12/30 08:31:12;;;;;;;63.83;7.95;;;;;;;;;;5033920;28;20252;-69
2022/12/30 08:33:39;;;;;;;69.70;8.38;;;;;;;;;;5033914;28;20214;-69
2022/12/30 08:36:07;;;;;;;63.67;8.15;;;;;;;;;;5033712;28;20206;-69
2022/12/30 08:38:35;;;;;;;65.30;7.95;;;;;;;;;;5033305;28;20589;-68
2022/12/30 08:41:08;;;;;;;63.25;7.80;;;;;;;;;;5033261;28;20248;-68
2022/12/30 08:43:35;;;;;;;64.10;8.07;;;;;;;;;;5033815;28;20565;-68
2022/12/30 08:46:02;;;;;;;64.15;8.48;;;;;;;;;;5033674;28;20259;-68
2022/12/30 08:48:30;;;;;;;63.33;8.05;;;;;;;;;;5033184;28;20202;-68
2022/12/30 08:50:57;;;;;;;63.15;8.20;;;;;;;;;;5033465;28;20235;-68
2022/12/30 08:53:24;;;;;;;63.15;7.60;;;;;;;;;;5033505;28;20699;-68
2022/12/30 08:55:58;;;;;;;61.70;7.05;;;;;;;;;;5033784;28;20292;-68
2022/12/30 08:58:27;;;;;;;63.80;8.45;;;;;;;;;;5033345;28;20217;-69
2022/12/30 09:00:54;;;;;;;62.70;7.18;;;;;;;;;;5032685;28;20633;-68
2022/12/30 09:03:21;;;;;;;61.97;7.40;;;;;;;;;;5033513;28;20216;-69
2022/12/30 09:05:50;;;;;;;62.55;7.30;;;;;;;;;;5032448;28;20236;-68
2022/12/30 09:08:17;;;;;;;64.20;7.60;;;;;;;;;;5033079;28;20214;-68
2022/12/30 09:10:44;;;;;;;62.20;7.35;;;;;;;;;;5031651;28;20225;-68
2022/12/30 09:13:12;;;;;;;61.78;6.85;;;;;;;;;;5033277;28;20216;-68
2022/12/30 09:15:40;;;;;;;62.17;6.97;;;;;;;;;;5032914;28;20209;-68
2022/12/30 09:18:07;;;;;;;62.70;6.38;;;;;;;;;;5033234;28;20210;-68
2022/12/30 09:20:34;;;;;;;65.82;7.00;;;;;;;;;;5032197;28;20206;-68
2022/12/30 09:23:01;;;;;;;61.30;5.90;;;;;;;;;;5033083;28;20580;-68
2022/12/30 09:25:29;;;;;;;60.58;5.50;;;;;;;;;;5033048;28;20229;-68
2022/12/30 09:27:56;;;;;;;64.22;6.78;;;;;;;;;;5032782;28;20296;-68
2022/12/30 09:30:23;;;;;;;60.47;5.30;;;;;;;;;;5031949;28;20217;-68
2022/12/30 09:32:51;;;;;;;62.00;5.57;;;;;;;;;;5032714;28;20213;-69
2022/12/30 09:35:19;;;;;;;60.80;5.77;;;;;;;;;;5032820;28;20441;-69
2022/12/30 09:37:46;;;;;;;60.20;5.53;;;;;;;;;;5032734;28;20449;-69
2022/12/30 09:40:15;;;;;;;60.93;5.40;;;;;;;;;;5032028;28;20471;-69
2022/12/30 09:45:32;;;;;;;59.90;5.33;;;;;;;;;;5032564;28;20538;-69
2022/12/30 09:48:04;;;;;;;60.80;4.30;;;;;;;;;;5032622;28;20816;-69
2022/12/30 09:50:34;;;;;;;59.87;4.30;;;;;;;;;;5031809;28;20452;-69
2022/12/30 09:53:05;;;;;;;58.80;4.90;;;;;;;;;;5031566;28;20965;-69
2022/12/30 09:55:34;;;;;;;59.13;4.70;;;;;;;;;;5032425;28;20449;-69
2022/12/30 09:58:04;;;;;;;59.40;4.47;;;;;;;;;;5032552;28;20820;-69
2022/12/30 10:00:35;;;;;;;59.00;4.00;;;;;;;;;;5031628;28;20453;-69
2022/12/30 10:03:06;;;;;;;58.60;4.50;;;;;;;;;;5032352;28;20453;-69
2022/12/30 10:05:41;;;;;;;59.77;3.77;;;;;;;;;;5032063;28;20854;-69
2022/12/30 10:08:17;;;;;;;60.20;4.50;;;;;;;;;;5032307;28;20444;-69
2022/12/30 10:10:46;;;;;;;59.77;3.90;;;;;;;;;;5031385;28;20472;-69
2022/12/30 10:13:16;;;;;;;60.10;3.73;;;;;;;;;;5032272;28;20540;-69
2022/12/30 10:15:48;;;;;;;59.40;3.60;;;;;;;;;;5032036;28;20445;-69
2022/12/30 10:18:23;;;;;;;58.40;3.40;;;;;;;;;;5031862;28;20453;-69
2022/12/30 10:20:54;;;;;;;58.50;3.30;;;;;;;;;;5031371;28;20475;-69
2022/12/30 10:23:27;;;;;;;58.97;3.23;;;;;;;;;;5032122;28;20503;-69
2022/12/30 10:26:00;;;;;;;58.90;3.40;;;;;;;;;;5031934;28;20489;-69
2022/12/30 10:28:31;;;;;;;58.97;3.00;;;;;;;;;;5031674;28;20449;-69
2022/12/30 10:30:58;;;;;;;58.67;3.00;;;;;;;;;;5031815;28;20468;-69
2022/12/30 10:33:26;;;;;;;59.37;3.50;;;;;;;;;;5032021;28;20450;-68
2022/12/30 10:35:58;;;;;;;58.63;2.97;;;;;;;;;;5031961;28;20447;-68
2022/12/30 10:38:27;;;;;;;59.70;3.20;;;;;;;;;;5031770;28;20445;-68
2022/12/30 10:40:59;;;;;;;58.40;3.20;;;;;;;;;;5031085;28;20473;-68
2022/12/30 10:43:34;;;;;;;58.73;3.53;;;;;;;;;;5031671;28;20972;-69
2022/12/30 10:46:11;;;;;;;60.13;3.40;;;;;;;;;;5031789;28;20861;-69
2022/12/30 10:48:48;;;;;;;58.20;3.30;;;;;;;;;;5031082;28;20453;-69
2022/12/30 10:51:16;;;;;;;59.97;4.10;;;;;;;;;;5031211;28;20469;-69
2022/12/30 10:53:44;;;;;;;59.57;3.60;;;;;;;;;;5031509;28;20463;-68
2022/12/30 10:56:16;;;;;;;59.20;3.50;;;;;;;;;;5031629;28;20945;-69
2022/12/30 10:58:46;;;;;;;57.77;3.00;;;;;;;;;;5030705;28;20455;-69
2022/12/30 11:01:16;;;;;;;58.87;3.23;;;;;;;;;;5031601;28;20469;-69
2022/12/30 11:03:46;;;;;;;58.47;3.10;;;;;;;;;;5032528;28;20448;-69
2022/12/30 11:06:18;;;;;;;57.77;3.00;;;;;;;;;;5035789;28;20531;-69
2022/12/30 11:08:45;;;;;;;58.20;2.90;;;;;;;;;;5034937;28;20452;-68
2022/12/30 11:11:12;;;;;;;58.90;3.00;;;;;;;;;;5035512;28;20484;-69
2022/12/30 11:16:25;;;;;;;58.17;2.63;;;;;;;;;;5035418;28;20797;-68
2022/12/30 11:18:54;;;;;;;60.97;2.90;;;;;;;;;;5034747;28;20453;-68
2022/12/30 11:21:25;;;;;;;59.10;2.60;;;;;;;;;;5035577;28;20468;-69
2022/12/30 11:23:54;;;;;;;59.20;3.00;;;;;;;;;;5035199;28;20498;-69
2022/12/30 11:26:22;;;;;;;58.00;3.03;;;;;;;;;;5035076;28;20481;-68
2022/12/30 11:28:51;;;;;;;59.17;3.20;;;;;;;;;;5034237;28;20449;-68
2022/12/30 11:31:19;;;;;;;57.77;2.83;;;;;;;;;;5035007;28;21008;-68
2022/12/30 11:33:48;;;;;;;57.57;2.93;;;;;;;;;;5034966;28;20962;-68
2022/12/30 11:36:18;;;;;;;58.93;3.00;;;;;;;;;;5035001;28;20971;-69
2022/12/30 11:38:46;;;;;;;57.57;2.80;;;;;;;;;;5034205;28;20453;-68
2022/12/30 11:41:28;;;;;;;58.50;3.10;;;;;;;;;;5034830;28;20472;-69
2022/12/30 11:44:12;;;;;;;57.80;3.03;;;;;;;;;;5032683;28;20465;-68
2022/12/30 11:46:40;;;;;;;58.00;3.37;;;;;;;;;;5034795;28;20550;-68
2022/12/30 11:49:18;;;;;;;58.07;3.23;;;;;;;;;;5033958;28;20454;-69
2022/12/30 11:51:48;;;;;;;58.97;2.70;;;;;;;;;;5034620;28;20492;-68
2022/12/30 11:54:17;;;;;;;58.23;3.30;;;;;;;;;;5034428;28;20448;-68
2022/12/30 11:56:52;;;;;;;59.90;3.20;;;;;;;;;;5034770;28;20451;-68
2022/12/30 11:59:21;;;;;;;59.40;3.30;;;;;;;;;;5033946;28;20455;-68
2022/12/30 12:01:51;;;;;;;58.27;3.07;;;;;;;;;;5034322;28;20473;-69
2022/12/30 12:04:31;;;;;;;59.47;3.53;;;;;;;;;;5034418;28;20445;-68
2022/12/30 12:07:00;;;;;;;58.10;3.10;;;;;;;;;;5034607;28;20476;-68
2022/12/30 12:09:30;;;;;;;62.53;4.83;;;;;;;;;;5033785;28;20449;-68
2022/12/30 12:11:59;;;;;;;59.30;3.57;;;;;;;;;;5034162;28;20492;-69
2022/12/30 12:14:29;;;;;;;58.10;3.00;;;;;;;;;;5034298;28;20457;-68
2022/12/30 12:16:59;;;;;;;57.80;2.90;;;;;;;;;;5033271;28;20449;-66
2022/12/30 12:19:29;;;;;;;58.00;2.90;;;;;;;;;;5033431;28;20452;-68
2022/12/30 12:21:58;;;;;;;58.17;3.00;;;;;;;;;;5034275;28;20473;-68
2022/12/30 12:24:29;;;;;;;58.57;2.83;;;;;;;;;;5034243;28;20445;-68
2022/12/30 12:26:58;;;;;;;57.57;2.70;;;;;;;;;;5034056;28;20488;-68
2022/12/30 12:29:26;;;;;;;57.40;2.80;;;;;;;;;;5033174;28;20839;-68
2022/12/30 12:32:05;;;;;;;58.30;2.90;;;;;;;;;;5034099;28;20469;-68
2022/12/30 12:34:39;;;;;;;59.33;2.80;;;;;;;;;;5034111;28;20448;-69
2022/12/30 12:37:14;;;;;;;58.80;3.20;;;;;;;;;;5033943;28;20954;-69
2022/12/30 12:39:52;;;;;;;60.60;4.60;;;;;;;;;;5032962;28;20448;-68
2022/12/30 12:42:23;;;;;;;57.93;2.63;;;;;;;;;;5033877;28;20477;-68
2022/12/30 12:45:07;;;;;;;58.27;2.93;;;;;;;;;;5033830;28;20456;-68
2022/12/30 12:47:40;;;;;;;57.90;2.70;;;;;;;;;;5033785;28;20484;-68
2022/12/30 12:50:14;;;;;;;59.90;3.20;;;;;;;;;;5032743;28;20455;-68
2022/12/30 12:52:46;;;;;;;60.07;4.00;;;;;;;;;;5033730;28;20477;-67
2022/12/30 12:55:31;;;;;;;58.57;2.93;;;;;;;;;;5033857;28;20449;-68
2022/12/30 12:58:00;;;;;;;58.07;2.90;;;;;;;;;;5033170;28;20453;-68
2022/12/30 13:00:34;;;;;;;64.60;3.00;;;;;;;;;;5032584;28;20981;-68
2022/12/30 13:03:29;;;;;;;59.07;3.03;;;;;;;;;;5033657;28;20456;-68
2022/12/30 13:06:00;;;;;;;59.77;2.97;;;;;;;;;;5033236;28;21013;-68
2022/12/30 13:08:33;;;;;;;57.83;2.47;;;;;;;;;;5033237;28;20459;-68
2022/12/30 13:11:04;;;;;;;57.90;2.80;;;;;;;;;;5032996;28;20768;-68
2022/12/30 13:13:35;;;;;;;58.77;2.70;;;;;;;;;;5033050;28;20975;-67
2022/12/30 13:16:05;;;;;;;58.27;3.30;;;;;;;;;;5033251;28;20449;-68
2022/12/30 13:18:33;;;;;;;58.47;3.00;;;;;;;;;;5032720;28;20480;-68
2022/12/30 13:21:02;;;;;;;60.20;2.80;;;;;;;;;;5033062;28;20740;-68
2022/12/30 13:23:31;;;;;;;57.60;2.60;;;;;;;;;;5032811;28;20956;-68
2022/12/30 13:25:59;;;;;;;59.10;2.80;;;;;;;;;;5033075;28;20468;-68
2022/12/30 13:28:27;;;;;;;59.97;3.17;;;;;;;;;;5032850;28;20452;-68
2022/12/30 13:31:06;;;;;;;58.47;2.90;;;;;;;;;;5032447;28;20469;-68
2022/12/30 13:33:39;;;;;;;58.57;3.00;;;;;;;;;;5032836;28;20445;-68
2022/12/30 13:36:10;;;;;;;59.93;3.00;;;;;;;;;;5032903;28;20445;-68
2022/12/30 13:38:45;;;;;;;59.60;3.80;;;;;;;;;;5031804;28;20452;-69
2022/12/30 13:41:30;;;;;;;59.70;3.80;;;;;;;;;;5032129;28;21011;-67
2022/12/30 13:43:58;;;;;;;60.00;3.70;;;;;;;;;;5032608;28;20460;-68
2022/12/30 13:46:29;;;;;;;59.00;3.60;;;;;;;;;;5032408;28;20495;-68
2022/12/30 13:48:58;;;;;;;60.70;3.43;;;;;;;;;;5032037;28;20457;-68
2022/12/30 13:51:26;;;;;;;58.87;3.17;;;;;;;;;;5032596;28;20479;-68
2022/12/30 13:53:56;;;;;;;58.90;3.10;;;;;;;;;;5032866;28;20446;-69
2022/12/30 13:56:33;;;;;;;58.77;3.03;;;;;;;;;;5032458;28;20441;-68
2022/12/30 13:59:00;;;;;;;57.70;2.40;;;;;;;;;;5031481;28;20956;-69
2022/12/30 14:01:31;;;;;;;58.33;2.87;;;;;;;;;;5032234;28;20474;-68
2022/12/30 14:04:16;;;;;;;57.60;2.80;;;;;;;;;;5032410;28;20484;-67
2022/12/30 14:06:45;;;;;;;58.17;2.87;;;;;;;;;;5032165;28;20479;-67
2022/12/30 14:09:16;;;;;;;58.77;3.50;;;;;;;;;;5031359;28;20856;-66
2022/12/30 14:11:58;;;;;;;59.07;3.53;;;;;;;;;;5032189;28;20867;-67
2022/12/30 14:14:25;;;;;;;58.50;3.53;;;;;;;;;;5031414;28;20448;-67
2022/12/30 14:16:59;;;;;;;59.43;3.57;;;;;;;;;;5032107;28;20437;-67
2022/12/30 14:19:40;;;;;;;59.67;4.13;;;;;;;;;;5031304;28;20536;-67
2022/12/30 14:22:08;;;;;;;58.57;4.10;;;;;;;;;;5032185;28;20475;-66
2022/12/30 14:24:48;;;;;;;59.60;3.67;;;;;;;;;;5032048;28;20456;-66
2022/12/30 14:27:46;;;;;;;59.73;3.63;;;;;;;;;;5031901;28;20476;-67
2022/12/30 14:30:30;;;;;;;58.57;3.60;;;;;;;;;;4970238;28;20456;-67
2022/12/30 14:33:04;;;;;;;58.87;3.73;;;;;;;;;;5024715;28;20465;-67
2022/12/30 14:35:32;;;;;;;58.60;3.17;;;;;;;;;;5032013;28;20449;-67
2022/12/30 14:38:16;;;;;;;59.10;3.50;;;;;;;;;;5031629;28;20451;-68
2022/12/30 14:40:43;;;;;;;59.17;4.33;;;;;;;;;;5031064;28;20843;-68
2022/12/30 14:43:18;;;;;;;58.93;3.90;;;;;;;;;;5031869;28;20535;-67
2022/12/30 14:45:45;;;;;;;62.07;4.90;;;;;;;;;;5031911;28;20825;-67
2022/12/30 14:48:14;;;;;;;61.87;4.77;;;;;;;;;;5031643;28;20485;-67
2022/12/30 14:50:41;;;;;;;61.67;5.10;;;;;;;;;;5031421;28;20821;-67
2022/12/30 14:53:12;;;;;;;60.77;5.57;;;;;;;;;;5031439;28;20453;-67
2022/12/30 14:55:44;;;;;;;66.60;4.97;;;;;;;;;;5031864;28;20454;-67
2022/12/30 14:58:15;;;;;;;61.93;5.20;;;;;;;;;;5031830;28;20449;-67
2022/12/30 15:00:45;;;;;;;62.20;5.40;;;;;;;;;;5030976;28;20472;-67
2022/12/30 15:03:16;;;;;;;62.67;5.80;;;;;;;;;;5031537;28;20456;-67
2022/12/30 15:05:49;;;;;;;64.77;7.07;;;;;;;;;;5031473;28;20460;-68
2022/12/30 15:08:17;;;;;;;65.03;5.80;;;;;;;;;;5031537;28;20834;-67
2022/12/30 15:10:53;;;;;;;62.00;5.97;;;;;;;;;;5030722;28;21028;-67
2022/12/30 15:13:21;;;;;;;61.30;5.03;;;;;;;;;;5031599;28;20872;-67
2022/12/30 15:15:49;;;;;;;60.47;4.13;;;;;;;;;;5031606;28;20451;-67
2022/12/30 15:18:34;;;;;;;59.20;3.93;;;;;;;;;;5031987;28;20437;-67
2022/12/30 15:21:14;;;;;;;66.17;4.00;;;;;;;;;;5031663;28;20461;-68
2022/12/30 15:23:41;;;;;;;59.10;3.80;;;;;;;;;;5031381;28;20445;-68
2022/12/30 15:26:15;;;;;;;58.70;3.37;;;;;;;;;;5031318;28;20447;-67
2022/12/30 15:28:43;;;;;;;58.00;3.10;;;;;;;;;;5030601;28;20449;-67
2022/12/30 15:31:17;;;;;;;58.23;2.83;;;;;;;;;;5031400;28;20830;-68
2022/12/30 15:33:53;;;;;;;58.50;3.20;;;;;;;;;;5031445;28;20455;-68
2022/12/30 15:36:22;;;;;;;57.80;2.87;;;;;;;;;;5031505;28;20523;-68
2022/12/30 15:38:49;;;;;;;57.97;2.90;;;;;;;;;;5030369;28;20460;-67
2022/12/30 15:41:19;;;;;;;58.83;3.20;;;;;;;;;;5031397;28;20471;-69
2022/12/30 15:43:46;;;;;;;57.93;3.10;;;;;;;;;;5031260;28;20659;-68
2022/12/30 15:46:23;;;;;;;58.67;3.37;;;;;;;;;;5031379;28;20456;-68